CheckWX is a tool to help pilots better visualize weather data.  It is not intended as a substitute for an official pre-flight weather briefing.

06:31:11 UTC

KAMN METAR
Gratiot Community Airport
Alma, Michigan, USA
Current

16 mins ago

KAMN 230615Z AUTO 20007KT 10SM CLR 03/M04 A3005 RMK AO2 T00251042
Observed
Feb-23 @ 06:15 UTC
Wind
  • 200° at 7 KTS
Visibility
10 SM
Flight Rules
VFR
Cloud Levels
  • Clear skies
Temperature
C / 37°F
Dewpoint
-4°C / 25°F
Humidity
60%
Altimeter
30.05" Hg
Pressure
1017.62 hPa
Previous

36 mins ago

KAMN 230555Z AUTO 20007KT 10SM CLR 03/M04 A3006 RMK AO2 T00251040 10035 20008 400551025
Observed
Feb-23 @ 05:55 UTC
Wind
  • 200° at 7 KTS
Visibility
10 SM
Flight Rules
VFR
Cloud Levels
  • Clear skies
Temperature
C / 37°F
Dewpoint
-4°C / 25°F
Humidity
60%
Altimeter
30.06" Hg
Pressure
1017.92 hPa
Previous

56 mins ago

KAMN 230535Z AUTO 20007KT 10SM CLR 03/M04 A3006 RMK AO2 T00271037
Observed
Feb-23 @ 05:35 UTC
Wind
  • 200° at 7 KTS
Visibility
10 SM
Flight Rules
VFR
Cloud Levels
  • Clear skies
Temperature
C / 37°F
Dewpoint
-4°C / 25°F
Humidity
60%
Altimeter
30.06" Hg
Pressure
1017.92 hPa